createdAt,value
2022-08-25T00:02:11.296Z,99.90
2022-08-25T00:05:02.042Z,99.90
2022-08-25T00:07:53.774Z,99.90
2022-08-25T00:10:42.352Z,99.90
2022-08-25T00:13:30.718Z,99.90
2022-08-25T00:16:19.831Z,99.90
2022-08-25T00:19:10.108Z,99.90
2022-08-25T00:21:57.948Z,99.90
2022-08-25T00:24:46.604Z,99.90
2022-08-25T00:27:43.773Z,99.90
2022-08-25T00:30:37.405Z,99.90
2022-08-25T00:33:24.855Z,99.90
2022-08-25T00:36:13.385Z,99.90
2022-08-25T00:39:01.167Z,99.90
2022-08-25T00:41:51.747Z,99.90
2022-08-25T00:44:40.253Z,99.90
2022-08-25T00:47:27.802Z,99.90
2022-08-25T00:50:17.375Z,99.90
2022-08-25T00:53:06.278Z,99.90
2022-08-25T00:55:54.335Z,99.90
2022-08-25T00:58:44.095Z,99.90
2022-08-25T01:01:35.162Z,99.90
2022-08-25T01:04:23.871Z,99.90
2022-08-25T01:07:17.381Z,99.90
2022-08-25T01:10:08.134Z,99.90
2022-08-25T01:12:59.668Z,99.90
2022-08-25T01:15:50.039Z,99.90
2022-08-25T01:18:44.844Z,99.90
2022-08-25T01:21:39.823Z,99.90
2022-08-25T01:24:37.542Z,99.90
2022-08-25T01:27:24.855Z,99.90
2022-08-25T01:30:12.932Z,99.90
2022-08-25T01:33:00.554Z,99.90
2022-08-25T01:35:49.047Z,99.90
2022-08-25T01:38:37.822Z,99.90
2022-08-25T01:41:28.705Z,99.90
2022-08-25T01:44:16.711Z,99.90
2022-08-25T01:47:05.179Z,99.90
2022-08-25T01:49:53.233Z,99.90
2022-08-25T01:52:47.592Z,99.90
2022-08-25T01:55:51.877Z,99.90
2022-08-25T01:58:41.754Z,99.90
2022-08-25T02:01:29.958Z,99.90
2022-08-25T02:04:18.108Z,99.90
2022-08-25T02:07:10.682Z,99.90
2022-08-25T02:09:58.793Z,99.90
2022-08-25T02:12:54.410Z,99.90
2022-08-25T02:15:43.584Z,99.90
2022-08-25T02:18:31.728Z,99.90
2022-08-25T02:21:19.383Z,99.90
2022-08-25T02:24:07.060Z,99.90
2022-08-25T02:26:59.626Z,99.90
2022-08-25T02:29:49.489Z,99.90
2022-08-25T02:32:36.726Z,99.90
2022-08-25T02:35:25.282Z,99.90
2022-08-25T02:38:12.891Z,99.90
2022-08-25T02:41:01.425Z,99.90
2022-08-25T02:43:54.984Z,99.90
2022-08-25T02:46:43.756Z,99.90
2022-08-25T02:49:32.262Z,99.90
2022-08-25T02:52:20.447Z,99.90
2022-08-25T02:55:08.720Z,99.90
2022-08-25T02:57:56.795Z,99.90
2022-08-25T03:00:44.266Z,99.90
2022-08-25T03:03:37.503Z,99.90
2022-08-25T03:06:28.118Z,99.90
2022-08-25T03:09:16.663Z,99.90
2022-08-25T03:12:05.338Z,99.90
2022-08-25T03:14:53.337Z,99.90
2022-08-25T03:17:43.782Z,99.90
2022-08-25T03:20:35.582Z,99.90
2022-08-25T03:23:23.316Z,99.90
2022-08-25T03:26:29.073Z,99.90
2022-08-25T03:29:18.612Z,99.90
2022-08-25T03:32:06.653Z,99.90
2022-08-25T03:34:54.656Z,99.90
2022-08-25T03:37:44.084Z,99.90
2022-08-25T03:40:31.586Z,99.90
2022-08-25T03:43:19.371Z,99.90
2022-08-25T03:46:07.578Z,99.90
2022-08-25T03:48:55.422Z,99.90
2022-08-25T03:51:43.874Z,99.90
2022-08-25T03:54:32.807Z,99.90
2022-08-25T03:57:20.873Z,99.90
2022-08-25T04:00:13.315Z,99.90
2022-08-25T04:03:02.514Z,99.90
2022-08-25T04:05:50.505Z,99.90
2022-08-25T04:08:38.435Z,99.90
2022-08-25T04:11:27.869Z,99.90
2022-08-25T04:14:16.730Z,99.90
2022-08-25T04:17:04.777Z,99.90
2022-08-25T04:19:52.899Z,99.90
2022-08-25T04:22:40.422Z,99.90
2022-08-25T04:25:32.847Z,99.90
2022-08-25T04:28:25.118Z,99.90
2022-08-25T04:31:14.593Z,99.90
2022-08-25T04:34:02.824Z,99.90
2022-08-25T04:36:52.704Z,99.90
2022-08-25T04:39:40.208Z,99.90
2022-08-25T04:42:28.251Z,99.90
2022-08-25T04:45:17.575Z,99.90
2022-08-25T04:48:06.321Z,99.90
2022-08-25T04:50:54.931Z,99.90
2022-08-25T04:53:43.446Z,99.90
2022-08-25T04:56:32.753Z,99.90
2022-08-25T04:59:20.554Z,99.90
2022-08-25T05:02:09.993Z,99.90
2022-08-25T05:04:57.689Z,99.90
2022-08-25T05:07:47.044Z,99.90
2022-08-25T05:10:35.038Z,99.90
2022-08-25T05:13:22.246Z,99.90
2022-08-25T05:16:11.522Z,99.90
2022-08-25T05:19:00.644Z,99.90
2022-08-25T05:21:48.380Z,99.90
2022-08-25T05:24:36.615Z,99.90
2022-08-25T05:27:24.073Z,99.90
2022-08-25T05:30:12.652Z,99.90
2022-08-25T05:33:00.083Z,99.90
2022-08-25T05:35:49.989Z,99.90
2022-08-25T05:38:39.939Z,99.90
2022-08-25T05:41:28.677Z,99.90
2022-08-25T05:44:20.859Z,99.90
2022-08-25T05:47:09.368Z,99.90
2022-08-25T05:49:56.893Z,99.90
2022-08-25T05:52:48.390Z,99.90
2022-08-25T05:55:35.980Z,99.90
2022-08-25T05:58:24.683Z,99.90
2022-08-25T06:01:38.041Z,99.90
2022-08-25T06:04:25.572Z,99.90
2022-08-25T06:07:13.249Z,99.90
2022-08-25T06:10:02.427Z,99.90
2022-08-25T06:12:50.251Z,99.90
2022-08-25T06:15:37.645Z,99.90
2022-08-25T06:18:25.488Z,99.90
2022-08-25T06:21:14.265Z,99.90
2022-08-25T06:24:01.445Z,99.90
2022-08-25T06:26:50.307Z,99.90
2022-08-25T06:29:37.977Z,99.90
2022-08-25T06:32:26.110Z,99.90
2022-08-25T06:35:14.316Z,99.90
2022-08-25T06:38:02.449Z,99.90
2022-08-25T06:40:51.290Z,99.90
2022-08-25T06:43:44.977Z,99.90
2022-08-25T06:46:37.179Z,99.90
2022-08-25T06:49:29.291Z,99.90
2022-08-25T06:52:18.415Z,99.90
2022-08-25T06:55:06.890Z,99.90
2022-08-25T06:57:55.245Z,99.90
2022-08-25T07:00:44.210Z,99.90
2022-08-25T07:03:32.090Z,99.90
2022-08-25T07:06:19.923Z,99.90
2022-08-25T07:09:08.492Z,99.90
2022-08-25T07:11:58.839Z,99.90
2022-08-25T07:15:10.092Z,99.90
2022-08-25T07:17:58.800Z,99.90
2022-08-25T07:20:47.028Z,99.90
2022-08-25T07:23:35.137Z,99.90
2022-08-25T07:26:37.441Z,99.90
2022-08-25T07:29:32.902Z,99.90
2022-08-25T07:32:20.681Z,99.90
2022-08-25T07:35:20.564Z,99.90
2022-08-25T07:38:12.973Z,99.90
2022-08-25T07:41:03.784Z,99.90
2022-08-25T07:43:52.267Z,99.90
2022-08-25T07:46:41.679Z,99.90
2022-08-25T07:49:35.849Z,99.90
2022-08-25T07:52:28.459Z,99.90
2022-08-25T07:55:17.995Z,99.90
2022-08-25T07:58:06.590Z,99.90
2022-08-25T08:00:54.185Z,99.90
2022-08-25T08:03:50.374Z,99.90
2022-08-25T08:06:40.479Z,99.90
2022-08-25T08:09:32.424Z,99.90
2022-08-25T08:12:20.348Z,99.90
2022-08-25T08:15:10.313Z,99.90
2022-08-25T08:17:59.390Z,99.90
2022-08-25T08:20:46.919Z,99.90
2022-08-25T08:23:34.935Z,99.90
2022-08-25T08:26:36.455Z,99.90
2022-08-25T08:29:30.194Z,99.90
2022-08-25T08:32:19.541Z,99.90
2022-08-25T08:35:08.106Z,99.90
2022-08-25T08:37:55.625Z,99.90
2022-08-25T08:41:07.026Z,99.90
2022-08-25T08:43:57.853Z,99.90
2022-08-25T08:46:50.764Z,99.90
2022-08-25T08:49:42.199Z,99.90
2022-08-25T08:52:37.254Z,99.90
2022-08-25T08:55:27.766Z,99.90
2022-08-25T08:58:19.490Z,99.90
2022-08-25T09:01:18.338Z,99.90
2022-08-25T09:04:09.976Z,99.90
2022-08-25T09:06:58.517Z,99.90
2022-08-25T09:09:47.629Z,99.90
2022-08-25T09:12:38.269Z,99.90
2022-08-25T09:15:52.717Z,99.90
2022-08-25T09:18:51.521Z,99.90
2022-08-25T09:21:44.086Z,99.90
2022-08-25T09:24:37.682Z,99.90
2022-08-25T09:27:29.915Z,99.90
2022-08-25T09:30:18.475Z,99.90
2022-08-25T09:33:07.294Z,99.90
2022-08-25T09:35:57.935Z,99.90
2022-08-25T09:38:45.257Z,99.90
2022-08-25T09:41:37.583Z,99.90
2022-08-25T09:44:28.842Z,99.90
2022-08-25T09:47:22.054Z,99.90
2022-08-25T09:50:18.620Z,99.90
2022-08-25T09:53:18.817Z,99.90
2022-08-25T09:56:12.592Z,99.90
2022-08-25T09:59:34.419Z,99.90
2022-08-25T10:02:25.372Z,99.90
2022-08-25T10:05:24.424Z,99.90
2022-08-25T10:08:15.116Z,99.90
2022-08-25T10:11:09.026Z,99.90
2022-08-25T10:14:03.323Z,99.90
2022-08-25T10:16:51.188Z,99.90
2022-08-25T10:19:39.191Z,99.90
2022-08-25T10:22:32.571Z,99.70
2022-08-25T10:25:23.230Z,98.60
2022-08-25T10:28:16.160Z,97.00
2022-08-25T10:31:09.673Z,96.30
2022-08-25T10:34:03.270Z,97.60
2022-08-25T10:36:57.728Z,95.70
2022-08-25T10:39:46.489Z,95.90
2022-08-25T10:42:49.488Z,95.40
2022-08-25T10:45:44.496Z,93.20
2022-08-25T10:48:50.055Z,92.80
2022-08-25T10:51:42.418Z,93.40
2022-08-25T10:54:36.617Z,91.50
2022-08-25T10:57:31.181Z,91.40
2022-08-25T11:00:19.887Z,90.80
2022-08-25T11:03:17.246Z,91.50
2022-08-25T11:06:07.352Z,90.90
2022-08-25T11:09:02.383Z,91.20
2022-08-25T11:11:55.330Z,91.00
2022-08-25T11:14:47.937Z,90.80
2022-08-25T11:17:38.831Z,87.90
2022-08-25T11:20:34.760Z,87.70
2022-08-25T11:23:24.164Z,88.50
2022-08-25T11:26:13.159Z,87.30
2022-08-25T11:29:04.189Z,86.00
2022-08-25T11:31:53.753Z,85.40
2022-08-25T11:34:42.989Z,84.90
2022-08-25T11:37:33.750Z,86.10
2022-08-25T11:40:32.375Z,87.20
2022-08-25T11:43:35.897Z,87.80
2022-08-25T11:46:28.315Z,86.90
2022-08-25T11:49:41.726Z,86.00
2022-08-25T11:52:54.072Z,87.10
2022-08-25T11:55:49.120Z,82.60
2022-08-25T11:58:43.736Z,81.30
2022-08-25T12:01:46.417Z,82.40
2022-08-25T12:04:44.157Z,79.50
2022-08-25T12:07:47.672Z,79.60
2022-08-25T12:10:51.609Z,80.40
2022-08-25T12:13:43.744Z,79.10
2022-08-25T12:16:43.651Z,82.40
2022-08-25T12:19:48.736Z,80.30
2022-08-25T12:22:57.248Z,81.10
2022-08-25T12:25:50.593Z,81.30
2022-08-25T12:28:47.224Z,78.40
2022-08-25T12:31:51.055Z,76.40
2022-08-25T12:34:44.804Z,76.60
2022-08-25T12:37:33.389Z,75.60
2022-08-25T12:40:26.526Z,75.30
2022-08-25T12:43:26.528Z,78.90
2022-08-25T12:46:35.387Z,79.30
2022-08-25T12:49:41.144Z,75.30
2022-08-25T12:52:28.381Z,78.90
2022-08-25T12:55:16.728Z,74.90
2022-08-25T12:58:08.142Z,74.20
2022-08-25T13:01:07.624Z,74.20
2022-08-25T13:04:10.515Z,73.50
2022-08-25T13:07:06.329Z,76.30
2022-08-25T13:10:09.132Z,73.90
2022-08-25T13:12:59.806Z,72.40
2022-08-25T13:15:59.277Z,72.70
2022-08-25T13:18:51.401Z,71.00
2022-08-25T13:21:42.854Z,69.50
2022-08-25T13:24:31.333Z,69.30
2022-08-25T13:27:29.138Z,70.40
2022-08-25T13:30:23.947Z,69.90
2022-08-25T13:33:19.980Z,69.70
2022-08-25T13:36:25.901Z,70.10
2022-08-25T13:39:20.041Z,69.50
2022-08-25T13:42:27.406Z,69.30
2022-08-25T13:45:18.126Z,70.60
2022-08-25T13:48:05.913Z,69.50
2022-08-25T13:50:54.156Z,69.90
2022-08-25T13:56:40.020Z,71.60
2022-08-25T13:59:34.339Z,73.70
2022-08-25T14:02:44.813Z,71.10
2022-08-25T14:05:39.541Z,72.50
2022-08-25T14:08:34.886Z,76.30
2022-08-25T14:11:30.465Z,73.60
2022-08-25T14:14:33.763Z,73.50
2022-08-25T14:17:38.154Z,76.90
2022-08-25T14:20:29.789Z,77.10
2022-08-25T14:23:19.220Z,78.40
2022-08-25T14:26:07.505Z,77.40
2022-08-25T14:28:56.508Z,74.20
2022-08-25T14:31:46.293Z,78.00
2022-08-25T14:34:36.678Z,79.40
2022-08-25T14:37:25.835Z,79.20
2022-08-25T14:40:16.314Z,79.20
2022-08-25T14:43:05.574Z,78.20
2022-08-25T14:45:57.604Z,77.10
2022-08-25T14:48:49.049Z,76.20
2022-08-25T14:51:37.109Z,77.60
2022-08-25T14:54:26.933Z,76.40
2022-08-25T14:57:14.835Z,78.00
2022-08-25T15:00:02.596Z,76.60
2022-08-25T15:02:51.658Z,78.50
2022-08-25T15:05:41.922Z,77.90
2022-08-25T15:08:47.401Z,77.10
2022-08-25T15:11:35.844Z,77.60
2022-08-25T15:14:28.588Z,71.90
2022-08-25T15:17:20.503Z,75.10
2022-08-25T15:20:08.799Z,74.60
2022-08-25T15:23:00.368Z,76.90
2022-08-25T15:25:49.314Z,77.70
2022-08-25T15:28:43.246Z,78.20
2022-08-25T15:31:32.160Z,80.00
2022-08-25T15:34:21.098Z,80.90
2022-08-25T15:37:10.289Z,80.50
2022-08-25T15:39:59.493Z,80.80
2022-08-25T15:42:46.767Z,81.90
2022-08-25T15:45:36.217Z,84.00
2022-08-25T15:48:25.090Z,84.10
2022-08-25T15:51:12.920Z,85.70
2022-08-25T15:54:00.918Z,83.70
2022-08-25T15:56:49.762Z,84.70
2022-08-25T15:59:40.973Z,84.90
2022-08-25T16:02:29.055Z,85.70
2022-08-25T16:05:16.976Z,85.60
2022-08-25T16:08:04.868Z,85.50
2022-08-25T16:10:53.227Z,86.10
2022-08-25T16:13:42.490Z,85.90
2022-08-25T16:16:30.817Z,86.10
2022-08-25T16:19:20.501Z,84.40
2022-08-25T16:22:09.041Z,91.60
2022-08-25T16:24:58.887Z,93.40
2022-08-25T16:27:46.650Z,94.90
2022-08-25T16:30:36.258Z,95.10
2022-08-25T16:33:24.162Z,95.90
2022-08-25T16:36:13.787Z,97.00
2022-08-25T16:39:02.296Z,97.60
2022-08-25T16:41:51.343Z,98.10
2022-08-25T16:44:40.064Z,98.30
2022-08-25T16:47:29.323Z,97.90
2022-08-25T16:50:17.706Z,97.90
2022-08-25T16:53:23.986Z,98.50
2022-08-25T16:56:12.157Z,99.00
2022-08-25T16:59:00.728Z,99.40
2022-08-25T17:01:48.338Z,99.90
2022-08-25T17:04:37.270Z,99.80
2022-08-25T17:07:27.862Z,98.90
2022-08-25T17:10:16.835Z,98.80
2022-08-25T17:13:05.333Z,99.50
2022-08-25T17:15:53.411Z,99.90
2022-08-25T17:18:41.212Z,99.90
2022-08-25T17:21:33.626Z,99.90
2022-08-25T17:24:22.466Z,99.90
2022-08-25T17:27:19.298Z,99.90
2022-08-25T17:30:07.717Z,99.90
2022-08-25T17:32:59.934Z,99.90
2022-08-25T17:35:48.672Z,99.90
2022-08-25T17:38:39.529Z,99.90
2022-08-25T17:41:27.815Z,99.90
2022-08-25T17:44:16.314Z,99.90
2022-08-25T17:47:04.036Z,99.90
2022-08-25T17:49:54.575Z,99.90
2022-08-25T17:52:41.790Z,99.90
2022-08-25T17:55:31.482Z,99.90
2022-08-25T17:58:20.165Z,99.90
2022-08-25T18:01:08.103Z,99.90
2022-08-25T18:03:56.490Z,99.90
2022-08-25T18:06:44.536Z,99.90
2022-08-25T18:09:33.288Z,99.90
2022-08-25T18:12:22.644Z,99.90
2022-08-25T18:15:15.673Z,99.90
2022-08-25T18:18:04.677Z,99.90
2022-08-25T18:20:52.809Z,99.90
2022-08-25T18:23:40.174Z,99.90
2022-08-25T18:26:28.320Z,99.90
2022-08-25T18:29:17.906Z,99.90
2022-08-25T18:32:05.834Z,99.90
2022-08-25T18:34:54.899Z,99.90
2022-08-25T18:38:00.568Z,99.90
2022-08-25T18:40:48.547Z,99.90
2022-08-25T18:43:36.833Z,99.90
2022-08-25T18:46:28.403Z,99.90
2022-08-25T18:49:22.555Z,99.90
2022-08-25T18:52:33.673Z,99.90
2022-08-25T18:55:25.033Z,99.90
2022-08-25T18:58:14.604Z,99.90
2022-08-25T19:01:02.191Z,99.90
2022-08-25T19:03:51.385Z,99.90
2022-08-25T19:06:52.351Z,99.90
2022-08-25T19:09:41.797Z,99.90
2022-08-25T19:12:32.398Z,99.90
2022-08-25T19:15:25.680Z,99.90
2022-08-25T19:18:17.273Z,99.90
2022-08-25T19:21:07.514Z,99.90
2022-08-25T19:23:55.046Z,99.90
2022-08-25T19:26:43.540Z,99.90
2022-08-25T19:29:31.371Z,99.90
2022-08-25T19:32:20.062Z,99.90
2022-08-25T19:35:08.111Z,99.90
2022-08-25T19:37:58.461Z,99.90
2022-08-25T19:40:47.053Z,99.90
2022-08-25T19:43:40.323Z,99.90
2022-08-25T19:46:44.922Z,99.90
2022-08-25T19:49:37.018Z,99.90
2022-08-25T19:52:28.813Z,99.90
2022-08-25T19:55:18.179Z,99.90
2022-08-25T19:58:11.053Z,99.90
2022-08-25T20:00:59.885Z,99.90
2022-08-25T20:03:48.916Z,99.90
2022-08-25T20:06:38.430Z,99.90
2022-08-25T20:09:38.960Z,99.90
2022-08-25T20:12:34.637Z,99.90
2022-08-25T20:15:23.581Z,99.90
2022-08-25T20:18:13.889Z,99.90
2022-08-25T20:21:04.558Z,99.90
2022-08-25T20:24:10.536Z,99.90
2022-08-25T20:26:59.125Z,99.90
2022-08-25T20:29:50.556Z,99.90
2022-08-25T20:32:39.843Z,99.90
2022-08-25T20:35:28.402Z,99.90
2022-08-25T20:38:16.855Z,99.90
2022-08-25T20:41:10.458Z,99.90
2022-08-25T20:43:59.252Z,99.90
2022-08-25T20:46:50.071Z,99.90
2022-08-25T20:49:40.689Z,99.90
2022-08-25T20:52:30.949Z,99.90
2022-08-25T20:55:19.253Z,99.90
2022-08-25T20:58:08.518Z,99.90
2022-08-25T21:00:59.894Z,99.90
2022-08-25T21:03:49.729Z,99.90
2022-08-25T21:06:37.968Z,99.90
2022-08-25T21:09:27.897Z,99.90
2022-08-25T21:12:15.363Z,99.90
2022-08-25T21:15:03.162Z,99.90
2022-08-25T21:17:51.559Z,99.90
2022-08-25T21:20:43.740Z,99.90
2022-08-25T21:23:31.226Z,99.90
2022-08-25T21:26:20.557Z,99.90
2022-08-25T21:29:15.166Z,99.90
2022-08-25T21:32:05.793Z,99.90
2022-08-25T21:34:55.150Z,99.90
2022-08-25T21:37:47.699Z,99.90
2022-08-25T21:40:44.885Z,99.90
2022-08-25T21:43:35.980Z,99.90
2022-08-25T21:46:30.048Z,99.90
2022-08-25T21:49:19.656Z,99.90
2022-08-25T21:52:07.806Z,99.90
2022-08-25T21:54:57.074Z,99.90
2022-08-25T21:57:45.592Z,99.90
2022-08-25T22:00:34.036Z,99.90
2022-08-25T22:03:22.001Z,99.90
2022-08-25T22:06:12.432Z,99.90
2022-08-25T22:09:00.366Z,99.90
2022-08-25T22:11:55.801Z,99.90
2022-08-25T22:14:47.089Z,99.90
2022-08-25T22:17:36.103Z,99.90
2022-08-25T22:20:24.084Z,99.90
2022-08-25T22:23:20.216Z,99.90
2022-08-25T22:26:16.430Z,99.90
2022-08-25T22:29:11.884Z,99.90
2022-08-25T22:32:02.418Z,99.90
2022-08-25T22:34:51.071Z,99.90
2022-08-25T22:37:39.825Z,99.90
2022-08-25T22:40:27.985Z,99.90
2022-08-25T22:43:19.579Z,99.90
2022-08-25T22:46:12.744Z,99.90
2022-08-25T22:49:01.941Z,99.90
2022-08-25T22:51:55.058Z,99.90
2022-08-25T22:54:45.901Z,99.90
2022-08-25T22:57:35.569Z,99.90
2022-08-25T23:00:26.130Z,99.90
2022-08-25T23:03:14.924Z,99.90
2022-08-25T23:06:03.541Z,99.90
2022-08-25T23:08:53.934Z,99.90
2022-08-25T23:11:43.902Z,99.90
2022-08-25T23:14:34.645Z,99.90
2022-08-25T23:17:23.488Z,99.90
2022-08-25T23:20:31.020Z,99.90
2022-08-25T23:23:19.543Z,99.90
2022-08-25T23:26:11.635Z,99.90
2022-08-25T23:29:03.226Z,99.90
2022-08-25T23:32:07.369Z,99.90
2022-08-25T23:34:57.464Z,99.90
2022-08-25T23:37:47.159Z,99.90
2022-08-25T23:40:36.468Z,99.90
2022-08-25T23:43:25.809Z,99.90
2022-08-25T23:46:13.790Z,99.90
2022-08-25T23:49:01.740Z,99.90
2022-08-25T23:51:51.855Z,99.90
2022-08-25T23:54:48.018Z,99.90
2022-08-25T23:57:35.854Z,99.90
